createdAt,value
2018-12-07T00:00:47.804Z,11.60
2018-12-07T00:03:15.295Z,11.60
2018-12-07T00:05:42.815Z,11.60
2018-12-07T00:08:10.313Z,11.60
2018-12-07T00:10:37.797Z,11.60
2018-12-07T00:13:05.315Z,11.60
2018-12-07T00:15:32.805Z,11.60
2018-12-07T00:18:00.319Z,11.60
2018-12-07T00:20:28.679Z,11.60
2018-12-07T00:22:56.192Z,11.60
2018-12-07T00:25:23.676Z,11.60
2018-12-07T00:27:51.192Z,11.60
2018-12-07T00:30:18.691Z,11.60
2018-12-07T00:32:46.211Z,11.70
2018-12-07T00:35:13.700Z,11.60
2018-12-07T00:37:41.187Z,11.60
2018-12-07T00:40:08.698Z,11.70
2018-12-07T00:42:36.182Z,11.70
2018-12-07T00:45:04.573Z,11.70
2018-12-07T00:47:32.085Z,11.60
2018-12-07T00:49:59.570Z,11.70
2018-12-07T00:52:27.083Z,11.70
2018-12-07T00:54:54.570Z,11.70
2018-12-07T00:57:22.100Z,11.70
2018-12-07T00:59:49.583Z,11.70
2018-12-07T01:02:17.095Z,11.70
2018-12-07T01:04:44.579Z,11.70
2018-12-07T01:07:12.091Z,11.70
2018-12-07T01:09:39.664Z,11.70
2018-12-07T01:12:07.210Z,11.70
2018-12-07T01:14:34.780Z,11.70
2018-12-07T01:17:02.300Z,11.70
2018-12-07T01:19:29.783Z,11.70
2018-12-07T01:21:57.295Z,11.60
2018-12-07T01:24:24.779Z,11.60
2018-12-07T01:26:52.292Z,11.60
2018-12-07T01:29:19.775Z,11.50
2018-12-07T01:31:47.295Z,11.50
2018-12-07T01:34:14.775Z,11.50
2018-12-07T01:36:42.288Z,11.50
2018-12-07T01:39:09.780Z,11.50
2018-12-07T01:41:37.320Z,11.50
2018-12-07T01:44:04.979Z,11.50
2018-12-07T01:46:32.495Z,11.50
2018-12-07T01:48:59.981Z,11.50
2018-12-07T01:51:27.491Z,11.50
2018-12-07T01:53:54.979Z,11.50
2018-12-07T01:56:22.495Z,11.50
2018-12-07T01:58:49.983Z,11.50
2018-12-07T02:01:17.495Z,11.50
2018-12-07T02:03:44.974Z,11.50
2018-12-07T02:06:12.485Z,11.50
2018-12-07T02:08:39.968Z,11.50
2018-12-07T02:11:07.483Z,11.50
2018-12-07T02:13:34.967Z,11.50
2018-12-07T02:16:02.478Z,11.50
2018-12-07T02:18:29.963Z,11.50
2018-12-07T02:20:57.476Z,11.50
2018-12-07T02:23:24.963Z,11.50
2018-12-07T02:25:52.479Z,11.50
2018-12-07T02:28:19.959Z,11.50
2018-12-07T02:30:47.471Z,11.50
2018-12-07T02:33:14.954Z,11.50
2018-12-07T02:35:42.475Z,11.50
2018-12-07T02:38:09.963Z,11.50
2018-12-07T02:40:37.476Z,11.50
2018-12-07T02:43:04.961Z,11.50
2018-12-07T02:45:32.471Z,11.50
2018-12-07T02:47:59.967Z,11.50
2018-12-07T02:50:27.496Z,11.50
2018-12-07T02:52:54.987Z,11.50
2018-12-07T02:55:22.502Z,11.50
2018-12-07T02:57:49.999Z,11.50
2018-12-07T03:00:17.512Z,11.50
2018-12-07T03:02:44.991Z,11.50
2018-12-07T03:05:12.594Z,11.50
2018-12-07T03:07:40.078Z,11.50
2018-12-07T03:10:07.685Z,11.60
2018-12-07T03:12:35.175Z,11.60
2018-12-07T03:15:03.062Z,11.60
2018-12-07T03:17:30.551Z,11.60
2018-12-07T03:19:58.064Z,11.60
2018-12-07T03:22:25.548Z,11.60
2018-12-07T03:24:53.063Z,11.60
2018-12-07T03:27:20.547Z,11.60
2018-12-07T03:29:48.059Z,11.60
2018-12-07T03:32:15.572Z,11.70
2018-12-07T03:34:43.054Z,11.70
2018-12-07T03:37:10.651Z,11.70
2018-12-07T03:39:38.134Z,11.70
2018-12-07T03:42:05.932Z,11.70
2018-12-07T03:44:33.419Z,11.70
2018-12-07T03:47:00.931Z,11.70
2018-12-07T03:49:28.414Z,11.70
2018-12-07T03:51:55.927Z,11.70
2018-12-07T03:54:23.407Z,11.70
2018-12-07T03:56:50.925Z,11.70
2018-12-07T03:59:18.407Z,11.80
2018-12-07T04:01:45.921Z,11.70
2018-12-07T04:04:13.411Z,11.80
2018-12-07T04:06:40.923Z,11.80
2018-12-07T04:09:08.407Z,11.80
2018-12-07T04:11:35.924Z,11.80
2018-12-07T04:14:03.523Z,11.80
2018-12-07T04:16:31.211Z,11.80
2018-12-07T04:18:58.694Z,11.80
2018-12-07T04:21:26.211Z,11.80
2018-12-07T04:23:53.695Z,11.90
2018-12-07T04:26:21.208Z,11.80
2018-12-07T04:28:48.691Z,11.90
2018-12-07T04:31:16.199Z,11.90
2018-12-07T04:33:43.683Z,11.90
2018-12-07T04:36:11.196Z,11.90
2018-12-07T04:38:38.694Z,11.90
2018-12-07T04:41:06.319Z,11.90
2018-12-07T04:43:33.802Z,11.90
2018-12-07T04:46:01.316Z,11.90
2018-12-07T04:48:28.799Z,11.90
2018-12-07T04:50:56.323Z,11.90
2018-12-07T04:53:23.807Z,11.90
2018-12-07T04:55:51.319Z,11.90
2018-12-07T04:58:18.804Z,11.90
2018-12-07T05:00:46.405Z,11.90
2018-12-07T05:03:13.888Z,11.90
2018-12-07T05:05:41.401Z,12.00
2018-12-07T05:08:08.890Z,12.00
2018-12-07T05:10:36.405Z,12.00
2018-12-07T05:13:03.971Z,11.90
2018-12-07T05:15:31.487Z,11.90
2018-12-07T05:17:58.971Z,11.90
2018-12-07T05:20:26.485Z,11.90
2018-12-07T05:22:53.998Z,11.90
2018-12-07T05:25:21.599Z,11.90
2018-12-07T05:27:49.087Z,11.80
2018-12-07T05:30:16.605Z,11.80
2018-12-07T05:32:44.091Z,11.80
2018-12-07T05:35:11.604Z,11.80
2018-12-07T05:37:39.088Z,11.80
2018-12-07T05:40:06.900Z,11.80
2018-12-07T05:42:34.388Z,11.80
2018-12-07T05:45:01.904Z,11.80
2018-12-07T05:47:29.397Z,11.80
2018-12-07T05:49:56.916Z,11.80
2018-12-07T05:52:24.404Z,11.80
2018-12-07T05:54:51.923Z,11.80
2018-12-07T05:57:19.403Z,11.80
2018-12-07T05:59:46.924Z,11.80
2018-12-07T06:02:14.415Z,11.80
2018-12-07T06:04:41.931Z,11.80
2018-12-07T06:07:09.420Z,11.80
2018-12-07T06:09:36.930Z,11.80
2018-12-07T06:12:04.686Z,11.80
2018-12-07T06:14:32.204Z,11.80
2018-12-07T06:16:59.691Z,11.80
2018-12-07T06:19:27.207Z,11.80
2018-12-07T06:21:54.696Z,11.80
2018-12-07T06:24:22.207Z,11.80
2018-12-07T06:26:49.692Z,11.80
2018-12-07T06:29:17.208Z,11.80
2018-12-07T06:31:44.691Z,11.80
2018-12-07T06:34:12.203Z,11.80
2018-12-07T06:36:39.688Z,11.80
2018-12-07T06:39:07.387Z,11.80
2018-12-07T06:41:47.462Z,11.80
2018-12-07T06:44:15.008Z,11.80
2018-12-07T06:46:42.492Z,11.80
2018-12-07T06:49:10.091Z,11.80
2018-12-07T06:51:37.576Z,11.80
2018-12-07T06:54:05.259Z,11.80
2018-12-07T06:56:32.745Z,11.80
2018-12-07T06:59:00.259Z,11.80
2018-12-07T07:01:27.748Z,11.80
2018-12-07T07:03:55.347Z,11.80
2018-12-07T07:06:22.832Z,11.80
2018-12-07T07:08:50.347Z,11.80
2018-12-07T07:11:17.832Z,11.80
2018-12-07T07:13:45.355Z,11.80
2018-12-07T07:16:12.850Z,11.80
2018-12-07T07:18:40.371Z,11.80
2018-12-07T07:21:07.856Z,11.80
2018-12-07T07:23:35.371Z,11.80
2018-12-07T07:26:02.855Z,11.80
2018-12-07T07:28:30.367Z,11.80
2018-12-07T07:30:57.857Z,11.80
2018-12-07T07:33:25.375Z,11.80
2018-12-07T07:35:52.895Z,11.80
2018-12-07T07:38:20.379Z,11.80
2018-12-07T07:40:47.899Z,11.80
2018-12-07T07:43:15.415Z,11.80
2018-12-07T07:45:42.935Z,11.80
2018-12-07T07:48:10.419Z,11.80
2018-12-07T07:50:37.903Z,11.80
2018-12-07T07:53:05.415Z,11.80
2018-12-07T07:55:32.942Z,11.90
2018-12-07T07:58:00.455Z,11.80
2018-12-07T08:00:28.051Z,11.90
2018-12-07T08:02:55.568Z,11.80
2018-12-07T08:05:23.087Z,11.80
2018-12-07T08:07:50.659Z,11.90
2018-12-07T08:10:18.185Z,11.80
2018-12-07T08:12:45.703Z,11.90
2018-12-07T08:15:13.274Z,11.90
2018-12-07T08:17:40.869Z,11.90
2018-12-07T08:20:08.543Z,11.90
2018-12-07T08:22:36.056Z,11.90
2018-12-07T08:25:04.408Z,11.90
2018-12-07T08:27:31.919Z,11.90
2018-12-07T08:29:59.403Z,11.80
2018-12-07T08:32:26.924Z,11.80
2018-12-07T08:34:54.407Z,11.90
2018-12-07T08:37:22.007Z,11.90
2018-12-07T08:39:49.579Z,11.80
2018-12-07T08:42:17.095Z,11.80
2018-12-07T08:44:44.587Z,11.80
2018-12-07T08:47:12.100Z,11.80
2018-12-07T08:49:45.395Z,11.80
2018-12-07T08:52:12.910Z,11.80
2018-12-07T08:54:40.395Z,11.80
2018-12-07T08:57:07.907Z,11.80
2018-12-07T08:59:35.391Z,11.90
2018-12-07T09:02:02.903Z,11.80
2018-12-07T09:04:30.383Z,11.90
2018-12-07T09:06:57.895Z,11.90
2018-12-07T09:09:25.388Z,11.90
2018-12-07T09:11:52.905Z,11.90
2018-12-07T09:14:20.396Z,11.90
2018-12-07T09:16:47.921Z,12.00
2018-12-07T09:19:15.407Z,12.00
2018-12-07T09:21:43.008Z,12.00
2018-12-07T09:24:10.495Z,12.00
2018-12-07T09:26:38.007Z,12.00
2018-12-07T09:29:05.492Z,12.00
2018-12-07T09:31:33.007Z,12.00
2018-12-07T09:34:00.495Z,12.10
2018-12-07T09:36:28.009Z,12.00
2018-12-07T09:38:55.607Z,12.10
2018-12-07T09:41:23.124Z,12.10
2018-12-07T09:43:50.611Z,12.10
2018-12-07T09:46:18.123Z,12.10
2018-12-07T09:48:45.608Z,12.20
2018-12-07T09:51:13.123Z,12.20
2018-12-07T09:53:40.615Z,12.30
2018-12-07T09:56:08.135Z,12.40
2018-12-07T09:58:35.638Z,12.40
2018-12-07T10:01:03.159Z,12.40
2018-12-07T10:03:30.643Z,12.40
2018-12-07T10:05:58.159Z,12.30
2018-12-07T10:08:25.644Z,12.40
2018-12-07T10:10:53.160Z,12.40
2018-12-07T10:13:20.649Z,12.50
2018-12-07T10:15:48.169Z,12.50
2018-12-07T10:18:15.655Z,12.50
2018-12-07T10:20:43.174Z,12.40
2018-12-07T10:23:10.663Z,12.40
2018-12-07T10:25:38.187Z,12.40
2018-12-07T10:28:05.678Z,12.40
2018-12-07T10:30:33.191Z,12.40
2018-12-07T10:33:00.677Z,12.30
2018-12-07T10:35:29.531Z,12.30
2018-12-07T10:37:57.203Z,12.30
2018-12-07T10:40:24.719Z,12.30
2018-12-07T10:42:52.207Z,12.20
2018-12-07T10:45:19.723Z,12.30
2018-12-07T10:47:50.231Z,12.30
2018-12-07T10:50:16.743Z,12.40
2018-12-07T10:52:44.224Z,12.40
2018-12-07T10:55:11.739Z,12.40
2018-12-07T10:57:39.227Z,12.40
2018-12-07T11:00:11.600Z,12.40
2018-12-07T11:02:44.876Z,12.30
2018-12-07T11:05:18.138Z,12.30
2018-12-07T11:07:51.379Z,12.30
2018-12-07T11:10:24.696Z,12.30
2018-12-07T11:12:57.836Z,12.40
2018-12-07T11:18:33.943Z,12.50
2018-12-07T11:21:07.275Z,12.40
2018-12-07T11:23:40.575Z,12.40
2018-12-07T11:26:13.803Z,12.40
2018-12-07T11:31:53.601Z,12.40
2018-12-07T11:34:21.911Z,12.50
2018-12-07T11:36:49.412Z,12.50
2018-12-07T11:39:16.936Z,12.50
2018-12-07T11:41:44.439Z,12.50
2018-12-07T11:44:11.964Z,12.60
2018-12-07T11:46:39.459Z,12.50
2018-12-07T11:49:06.984Z,12.60
2018-12-07T11:51:34.483Z,12.60
2018-12-07T11:54:02.011Z,12.60
2018-12-07T11:56:29.507Z,12.60
2018-12-07T11:58:57.036Z,12.60
2018-12-07T12:01:24.531Z,12.60
2018-12-07T12:03:52.256Z,12.50
2018-12-07T12:06:19.748Z,12.60
2018-12-07T12:08:47.392Z,12.60
2018-12-07T12:11:14.888Z,12.60
2018-12-07T12:13:42.415Z,12.60
2018-12-07T12:16:09.911Z,12.50
2018-12-07T12:18:37.439Z,12.50
2018-12-07T12:21:04.941Z,12.50
2018-12-07T12:23:32.472Z,12.60
2018-12-07T12:25:59.967Z,12.50
2018-12-07T12:28:27.496Z,12.50
2018-12-07T12:30:54.995Z,12.50
2018-12-07T12:33:22.603Z,12.50
2018-12-07T12:35:50.095Z,12.50
2018-12-07T12:38:17.620Z,12.40
2018-12-07T12:40:45.115Z,12.40
2018-12-07T12:43:12.640Z,12.50
2018-12-07T12:45:40.135Z,12.40
2018-12-07T12:48:07.672Z,12.50
2018-12-07T12:50:35.974Z,12.40
2018-12-07T12:53:03.688Z,12.40
2018-12-07T12:55:31.188Z,12.40
2018-12-07T12:57:58.716Z,12.40
2018-12-07T13:00:26.211Z,12.40
2018-12-07T13:02:53.739Z,12.50
2018-12-07T13:05:21.245Z,12.40
2018-12-07T13:07:48.774Z,12.40
2018-12-07T13:10:16.270Z,12.40
2018-12-07T13:12:43.795Z,12.40
2018-12-07T13:15:11.319Z,12.30
2018-12-07T13:17:38.811Z,12.30
2018-12-07T13:20:07.704Z,12.30
2018-12-07T13:22:35.486Z,12.20
2018-12-07T13:25:03.381Z,12.20
2018-12-07T13:27:30.883Z,12.10
2018-12-07T13:29:58.407Z,12.10
2018-12-07T13:32:25.903Z,12.00
2018-12-07T13:34:53.428Z,12.00
2018-12-07T13:37:20.923Z,11.90
2018-12-07T13:39:48.469Z,11.80
2018-12-07T13:42:16.119Z,11.70
2018-12-07T13:44:43.958Z,11.60
2018-12-07T13:47:12.677Z,11.60
2018-12-07T13:49:41.286Z,11.60
2018-12-07T13:52:08.934Z,11.50
2018-12-07T13:54:36.561Z,11.50
2018-12-07T13:57:04.198Z,11.40
2018-12-07T13:59:31.814Z,11.40
2018-12-07T14:01:59.344Z,11.30
2018-12-07T14:04:27.030Z,11.30
2018-12-07T14:06:54.606Z,11.20
2018-12-07T14:09:22.345Z,11.20
2018-12-07T14:11:50.856Z,11.10
2018-12-07T14:14:18.914Z,11.00
2018-12-07T14:16:46.553Z,11.00
2018-12-07T14:19:14.152Z,11.00
2018-12-07T14:21:41.699Z,10.90
2018-12-07T14:24:09.286Z,10.90
2018-12-07T14:26:36.962Z,10.90
2018-12-07T14:29:04.833Z,10.90
2018-12-07T14:31:32.437Z,10.90
2018-12-07T14:33:59.970Z,10.90
2018-12-07T14:36:27.463Z,11.00
2018-12-07T14:38:55.033Z,11.00
2018-12-07T14:41:22.675Z,11.00
2018-12-07T14:43:50.355Z,11.00
2018-12-07T14:46:18.100Z,11.00
2018-12-07T14:48:45.812Z,11.00
2018-12-07T14:51:13.545Z,11.00
2018-12-07T14:53:41.410Z,11.00
2018-12-07T14:56:09.218Z,11.00
2018-12-07T14:58:36.791Z,11.00
2018-12-07T15:01:04.678Z,10.90
2018-12-07T15:03:32.555Z,10.90
2018-12-07T15:06:00.638Z,10.90
2018-12-07T15:08:28.426Z,11.00
2018-12-07T15:10:56.212Z,10.90
2018-12-07T15:13:23.984Z,10.90
2018-12-07T15:15:51.636Z,10.90
2018-12-07T15:18:19.307Z,11.00
2018-12-07T15:20:46.930Z,10.90
2018-12-07T15:23:14.790Z,11.00
2018-12-07T15:25:42.483Z,10.90
2018-12-07T15:28:10.147Z,11.00
2018-12-07T15:30:37.936Z,11.00
2018-12-07T15:33:05.593Z,11.00
2018-12-07T15:35:33.216Z,11.00
2018-12-07T15:38:01.083Z,11.00
2018-12-07T15:40:28.856Z,11.00
2018-12-07T15:42:56.693Z,11.00
2018-12-07T15:45:24.429Z,11.00
2018-12-07T15:47:52.083Z,11.00
2018-12-07T15:50:25.075Z,11.00
2018-12-07T15:52:49.362Z,11.00
2018-12-07T15:55:16.948Z,11.00
2018-12-07T15:57:44.664Z,11.00
2018-12-07T16:00:12.491Z,11.00
2018-12-07T16:02:40.414Z,11.00
2018-12-07T16:05:08.389Z,11.00
2018-12-07T16:07:36.039Z,11.00
2018-12-07T16:10:05.447Z,11.00
2018-12-07T16:12:33.097Z,11.00
2018-12-07T16:15:00.739Z,11.00
2018-12-07T16:17:28.377Z,11.00
2018-12-07T16:19:56.046Z,11.00
2018-12-07T16:22:23.563Z,11.00
2018-12-07T16:24:51.097Z,11.00
2018-12-07T16:27:18.696Z,11.00
2018-12-07T16:29:46.936Z,11.00
2018-12-07T16:32:14.886Z,11.00
2018-12-07T16:34:42.493Z,11.00
2018-12-07T16:37:10.177Z,11.00
2018-12-07T16:39:37.930Z,10.90
2018-12-07T16:42:05.520Z,10.90
2018-12-07T16:44:33.172Z,10.90
2018-12-07T16:47:00.930Z,10.80
2018-12-07T16:49:28.541Z,10.80
2018-12-07T16:51:56.253Z,10.90
2018-12-07T16:54:24.001Z,10.90
2018-12-07T16:56:51.828Z,10.90
2018-12-07T16:59:19.723Z,11.00
2018-12-07T17:01:47.505Z,11.00
2018-12-07T17:04:15.076Z,11.00
2018-12-07T17:06:42.611Z,11.00
2018-12-07T17:09:10.196Z,11.10
2018-12-07T17:11:37.736Z,11.10
2018-12-07T17:14:05.493Z,11.10
2018-12-07T17:16:33.326Z,11.10
2018-12-07T17:19:01.197Z,11.10
2018-12-07T17:21:29.017Z,11.10
2018-12-07T17:23:56.791Z,11.10
2018-12-07T17:26:24.315Z,11.00
2018-12-07T17:28:52.137Z,11.00
2018-12-07T17:31:19.916Z,11.00
2018-12-07T17:33:47.713Z,11.00
2018-12-07T17:36:15.323Z,11.00
2018-12-07T17:38:42.880Z,11.00
2018-12-07T17:41:10.628Z,11.00
2018-12-07T17:43:38.291Z,11.00
2018-12-07T17:46:05.844Z,11.00
2018-12-07T17:48:33.576Z,11.00
2018-12-07T17:51:01.179Z,11.00
2018-12-07T17:53:28.677Z,11.00
2018-12-07T17:55:56.445Z,10.90
2018-12-07T17:58:24.019Z,10.90
2018-12-07T18:00:51.550Z,10.70
2018-12-07T18:03:19.048Z,10.70
2018-12-07T18:05:46.951Z,10.50
2018-12-07T18:08:14.674Z,10.50
2018-12-07T18:10:42.408Z,10.50
2018-12-07T18:13:10.066Z,10.40
2018-12-07T18:15:37.827Z,10.40
2018-12-07T18:18:05.437Z,10.40
2018-12-07T18:20:33.304Z,10.40
2018-12-07T18:23:00.949Z,10.40
2018-12-07T18:25:28.595Z,10.40
2018-12-07T18:27:56.183Z,10.40
2018-12-07T18:30:23.817Z,10.40
2018-12-07T18:32:51.665Z,10.40
2018-12-07T18:35:19.530Z,10.40
2018-12-07T18:37:47.279Z,10.40
2018-12-07T18:40:15.132Z,10.40
2018-12-07T18:42:42.929Z,10.40
2018-12-07T18:45:10.545Z,10.40
2018-12-07T18:47:38.166Z,10.40
2018-12-07T18:50:07.323Z,10.40
2018-12-07T18:52:34.851Z,10.50
2018-12-07T18:55:02.462Z,10.50
2018-12-07T18:57:30.092Z,10.50
2018-12-07T18:59:58.240Z,10.60
2018-12-07T19:02:25.995Z,10.60
2018-12-07T19:04:53.680Z,10.60
2018-12-07T19:07:21.304Z,10.60
2018-12-07T19:09:48.849Z,10.60
2018-12-07T19:12:16.515Z,10.50
2018-12-07T19:14:44.118Z,10.50
2018-12-07T19:17:12.089Z,10.50
2018-12-07T19:19:39.830Z,10.50
2018-12-07T19:22:07.582Z,10.50
2018-12-07T19:24:35.167Z,10.50
2018-12-07T19:27:02.699Z,10.40
2018-12-07T19:29:30.654Z,10.40
2018-12-07T19:31:58.599Z,10.40
2018-12-07T19:34:26.208Z,10.30
2018-12-07T19:36:53.811Z,10.20
2018-12-07T19:39:21.688Z,10.10
2018-12-07T19:41:49.263Z,10.10
2018-12-07T19:44:17.107Z,10.00
2018-12-07T19:46:44.862Z,9.90
2018-12-07T19:49:12.835Z,9.90
2018-12-07T19:51:40.567Z,9.80
2018-12-07T19:54:08.220Z,9.80
2018-12-07T19:56:36.010Z,9.70
2018-12-07T19:59:03.694Z,9.70
2018-12-07T20:01:31.457Z,9.70
2018-12-07T20:03:59.127Z,9.60
2018-12-07T20:06:26.785Z,9.60
2018-12-07T20:08:54.418Z,9.50
2018-12-07T20:11:21.911Z,9.40
2018-12-07T20:13:49.570Z,9.40
2018-12-07T20:16:17.172Z,9.40
2018-12-07T20:18:44.905Z,9.30
2018-12-07T20:21:12.637Z,9.40
2018-12-07T20:23:40.235Z,9.30
2018-12-07T20:26:07.838Z,9.30
2018-12-07T20:28:35.476Z,9.40
2018-12-07T20:31:03.066Z,9.40
2018-12-07T20:33:30.740Z,9.50
2018-12-07T20:35:58.720Z,9.50
2018-12-07T20:38:26.673Z,9.50
2018-12-07T20:40:54.566Z,9.60
2018-12-07T20:43:22.288Z,9.60
2018-12-07T20:45:49.859Z,9.60
2018-12-07T20:48:17.407Z,9.70
2018-12-07T20:50:44.895Z,9.70
2018-12-07T20:53:12.552Z,9.80
2018-12-07T20:55:40.212Z,9.80
2018-12-07T20:58:08.050Z,9.80
2018-12-07T21:00:35.765Z,9.90
2018-12-07T21:03:03.519Z,9.90
2018-12-07T21:08:56.513Z,10.00
2018-12-07T21:11:24.180Z,10.00
2018-12-07T21:14:01.287Z,10.00
2018-12-07T21:16:39.191Z,10.00
2018-12-07T21:19:06.865Z,10.00
2018-12-07T21:21:34.748Z,9.90
2018-12-07T21:24:02.551Z,9.90
2018-12-07T21:26:30.196Z,9.90
2018-12-07T21:28:57.767Z,9.90
2018-12-07T21:31:25.546Z,9.90
2018-12-07T21:33:57.200Z,9.80
2018-12-07T21:36:36.471Z,9.70
2018-12-07T21:39:09.312Z,9.60
2018-12-07T21:41:36.886Z,9.50
2018-12-07T21:44:04.470Z,9.50
2018-12-07T21:46:32.191Z,9.50
2018-12-07T21:49:00.076Z,9.40
2018-12-07T21:51:32.329Z,9.50
2018-12-07T21:54:00.179Z,9.40
2018-12-07T21:56:27.851Z,9.40
2018-12-07T21:58:55.431Z,9.40
2018-12-07T22:01:23.294Z,9.30
2018-12-07T22:03:50.976Z,9.30
2018-12-07T22:06:18.584Z,9.20
2018-12-07T22:08:46.212Z,9.20
2018-12-07T22:11:13.894Z,9.10
2018-12-07T22:13:41.797Z,9.10
2018-12-07T22:16:09.387Z,9.10
2018-12-07T22:18:36.932Z,9.10
2018-12-07T22:21:04.549Z,9.10
2018-12-07T22:23:32.420Z,9.10
2018-12-07T22:26:00.131Z,9.00
2018-12-07T22:28:27.719Z,9.00
2018-12-07T22:30:55.422Z,9.00
2018-12-07T22:33:23.217Z,9.00
2018-12-07T22:35:50.996Z,9.00
2018-12-07T22:38:18.824Z,9.00
2018-12-07T22:40:46.679Z,9.00
2018-12-07T22:43:14.701Z,8.90
2018-12-07T22:45:42.299Z,8.90
2018-12-07T22:48:10.109Z,8.80
2018-12-07T22:50:37.710Z,8.80
2018-12-07T22:53:05.232Z,8.70
2018-12-07T22:55:32.723Z,8.70
2018-12-07T22:58:00.247Z,8.60
2018-12-07T23:00:27.827Z,8.60
2018-12-07T23:02:55.314Z,8.60
2018-12-07T23:05:22.924Z,8.50
2018-12-07T23:07:50.415Z,8.50
2018-12-07T23:10:17.936Z,8.50
2018-12-07T23:12:45.427Z,8.40
2018-12-07T23:15:12.959Z,8.40
2018-12-07T23:17:40.451Z,8.40
2018-12-07T23:20:08.311Z,8.30
2018-12-07T23:22:35.831Z,8.30
2018-12-07T23:25:03.599Z,8.30
2018-12-07T23:27:31.119Z,8.20
2018-12-07T23:29:58.607Z,8.20
2018-12-07T23:32:26.131Z,8.20
2018-12-07T23:34:53.623Z,8.20
2018-12-07T23:37:21.114Z,8.10
2018-12-07T23:39:48.638Z,8.10
2018-12-07T23:42:16.131Z,8.10
2018-12-07T23:44:43.651Z,8.10
2018-12-07T23:47:11.153Z,8.00
2018-12-07T23:49:38.679Z,8.00
2018-12-07T23:52:06.176Z,7.90
2018-12-07T23:54:33.667Z,7.90
2018-12-07T23:57:01.191Z,7.90
2018-12-07T23:59:28.683Z,7.90
